• Join FlightAware (Why Join?)
  • Login
  • US Flag 
Gobble Gobble! 
01:33PM EST


 

Airport Tracker/Info


-or-


 

Live Flight TrackerFlight Track Log ✈ CTL13 ✈ 01-Jul-2013 ✈ KEYE - KMDW

Flight Track Log - Related Links

Times and Time Zones

All times are in EDT time to prevent confusion due to time zone crossing. See the CTL13 flight status page for this flight to view local times or setup timezone preferences in your user account.

Time Position Orientation Groundspeed Altitude Reporting Facility
EDT Latitude Longitude Course Direction KTS MPH feet Rate Location/Type
07:57PM 39.9667 -86.3167 324° Northwest 159 183 2,600  Level Indianapolis TRACON
07:59PM 40.0097 -86.3578 324° Northwest 150 173 3,300 540 Climbing Indianapolis Center
08:00PM 40.0453 -86.3875 327° Northwest 151 174 3,900 540 Climbing Indianapolis Center
08:01PM 40.0847 -86.3850 North 145 167 4,500 420 Climbing Indianapolis Center
08:02PM 40.1200 -86.4222 321° Northwest 162 186 4,800 180 Climbing Indianapolis Center
08:03PM 40.1519 -86.4722 310° West 175 201 4,900 240 Climbing Indianapolis Center
08:04PM 40.1892 -86.5300 310° West 175 201 5,400 420 Climbing Chicago Center
08:05PM 40.2272 -86.5833 313° West 168 193 5,900 240 Climbing Chicago Center
08:06PM 40.2586 -86.6286 312° West 169 194 6,000  Climbing Chicago Center
08:07PM 40.2928 -86.6764 313° West 177 204 5,900 -60 Descending Chicago Center
08:08PM 40.3242 -86.7261 310° West 176 203 5,900  Level Chicago Center
08:09PM 40.3547 -86.7772 308° West 178 205 5,900  Level Chicago Center
08:10PM 40.3883 -86.8219 315° West 174 200 6,000 60 Climbing Chicago Center
08:11PM 40.4283 -86.8783 313° West 176 203 6,100  Climbing Chicago Center
08:12PM 40.4603 -86.9275 311° West 177 204 6,000 -60 Descending Chicago Center
08:13PM 40.4922 -86.9772 310° West 178 205 6,000  Level Chicago Center
08:14PM 40.5256 -87.0244 313° West 177 204 6,000  Level Chicago Center
08:15PM 40.5639 -87.0597 325° Northwest 171 197 6,000 -60 Level Chicago Center
08:16PM 40.6078 -87.0781 342° North 166 191 5,900  Descending Chicago Center
08:17PM 40.6550 -87.1008 340° North 167 192 6,000  Climbing Chicago Center
08:18PM 40.6964 -87.1258 335° Northwest 167 192 5,900  Descending Chicago Center
08:19PM 40.7464 -87.1531 338° Northwest 165 190 6,000  Climbing Chicago Center
08:20PM 40.7892 -87.1806 334° Northwest 171 197 5,900  Descending Chicago Center
08:21PM 40.8308 -87.2053 336° Northwest 168 193 6,000  Climbing Chicago Center
08:22PM 40.8731 -87.2269 339° North 166 191 6,000  Level Chicago Center
08:24PM 40.9144 -87.2492 338° Northwest 162 186 6,100  Climbing Chicago Center
08:25PM 40.9647 -87.2767 338° Northwest 165 190 6,000  Descending Chicago Center
08:26PM 41.0050 -87.2997 337° Northwest 160 184 6,200  Climbing Chicago Center
08:27PM 41.0469 -87.3208 339° North 160 184 6,100 -180 Descending Chicago Center
08:28PM 41.0894 -87.3403 341° North 162 186 5,900 -360 Descending Chicago Center
08:29PM 41.1350 -87.3658 337° Northwest 169 194 5,400 -600 Descending Chicago Center
08:30PM 41.1833 -87.3911 339° North 178 205 4,700 -660 Descending Chicago Center
08:31PM 41.2403 -87.4231 337° Northwest 184 212 4,100 -360 Descending Chicago Center
08:32PM 41.2844 -87.4500 335° Northwest 182 209 4,000  Descending Chicago Center
08:33PM 41.3244 -87.4736 336° Northwest 172 198 4,100  Climbing Chicago Center
08:34PM 41.3628 -87.4958 336° Northwest 161 185 4,100  Level Chicago Center
08:35PM 41.4011 -87.5167 338° Northwest 156 180 4,100  Level Chicago Center
08:36PM 41.4472 -87.5450 335° Northwest 155 178 4,100 -60 Level Chicago Center
08:37PM 41.4750 -87.5958 306° West 167 192 4,000  Descending Chicago Center
08:38PM 41.5031 -87.6450 307° West 167 192 4,100  Climbing Chicago Center
08:39PM 41.5322 -87.6931 309° West 168 193 4,000 -60 Descending Chicago Center
08:40PM 41.5617 -87.7419 309° West 169 194 4,000  Level Chicago Center
08:41PM 41.5967 -87.8003 309° West 170 196 4,000 -420 Level Chicago Center
08:42PM 41.6278 -87.8500 310° West 172 198 3,200 -600 Descending Chicago Center
08:43PM 41.6706 -87.8817 331° Northwest 179 206 2,800 -540 Descending Chicago Center
08:44PM 41.7044 -87.8550 30° Northeast 153 176 2,200 -600 Descending Chicago Center
08:45PM 41.7372 -87.8189 39° Northeast 151 174 1,600 -660 Descending Chicago Center
08:46PM 41.7714 -87.7756 43° Northeast 146 168 900 -420 Descending Chicago Center
08:47PM 41.7947 -87.7444 45° Northeast 142 163 800 -120 Descending Chicago Center